Observation data for Brownfield on 08/14/2019      Previous  Date  Next       Current Mesonet Observations  Soil Data  Daily Summary Page  Observations in Plain Language
KBWS 140500Z 09008KT 27/18 A3013 RMK A01 T02720175  RH  058%=      5-min Rain = 0
KBWS 140505Z 08008KT 27/18 A3013 RMK A01 T02720175  RH  058%=      5-min Rain = 0
KBWS 140510Z 07009KT 27/18 A3013 RMK A01 T02710177  RH  059%=      5-min Rain = 0
KBWS 140515Z 07010KT 27/18 A3013 RMK A01 T02720176  RH  059%=      5-min Rain = 0
KBWS 140520Z 07010KT 27/18 A3013 RMK A01 T02720177  RH  059%=      5-min Rain = 0
KBWS 140525Z 08010KT 27/18 A3013 RMK A01 T02710175  RH  058%=      5-min Rain = 0
KBWS 140530Z 08010KT 27/18 A3013 RMK A01 T02700175  RH  059%=      5-min Rain = 0
KBWS 140535Z 08010KT 27/18 A3013 RMK A01 T02690175  RH  059%=      5-min Rain = 0
KBWS 140540Z 09010KT 27/18 A3013 RMK A01 T02680175  RH  059%=      5-min Rain = 0
KBWS 140545Z 08009KT 27/18 A3013 RMK A01 T02670175  RH  060%=      5-min Rain = 0
KBWS 140550Z 07009KT 27/18 A3013 RMK A01 T02670177  RH  061%=      5-min Rain = 0
KBWS 140555Z 07009KT 27/18 A3013 RMK A01 T02660176  RH  061%=      5-min Rain = 0
KBWS 140600Z 08009KT 27/18 A3013 RMK A01 T02650175  RH  061%=      5-min Rain = 0
KBWS 140605Z 08009KT 26/17 A3013 RMK A01 T02640174  RH  061%=      5-min Rain = 0
KBWS 140610Z 08009KT 26/17 A3013 RMK A01 T02630174  RH  061%=      5-min Rain = 0
KBWS 140615Z 08008KT 26/17 A3013 RMK A01 T02610174  RH  062%=      5-min Rain = 0
KBWS 140620Z 07008KT 26/18 A3013 RMK A01 T02610176  RH  063%=      5-min Rain = 0
KBWS 140625Z 08007KT 26/18 A3012 RMK A01 T02610175  RH  062%=      5-min Rain = 0
KBWS 140630Z 10007KT 26/17 A3012 RMK A01 T02590174  RH  062%=      5-min Rain = 0
KBWS 140635Z 09007KT 26/17 A3012 RMK A01 T02580174  RH  063%=      5-min Rain = 0
KBWS 140640Z 09006KT 26/17 A3013 RMK A01 T02580174  RH  063%=      5-min Rain = 0
KBWS 140645Z 10005KT 26/17 A3013 RMK A01 T02560173  RH  064%=      5-min Rain = 0
KBWS 140650Z 09006KT 26/17 A3013 RMK A01 T02550173  RH  064%=      5-min Rain = 0
KBWS 140655Z 09005KT 25/17 A3013 RMK A01 T02530173  RH  065%=      5-min Rain = 0
KBWS 140700Z 09005KT 25/17 A3013 RMK A01 T02520173  RH  065%=      5-min Rain = 0
KBWS 140705Z 08006KT 25/17 A3013 RMK A01 T02510174  RH  066%=      5-min Rain = 0
KBWS 140710Z 07006KT 25/18 A3013 RMK A01 T02500176  RH  067%=      5-min Rain = 0
KBWS 140715Z 07006KT 25/18 A3013 RMK A01 T02500178  RH  068%=      5-min Rain = 0
KBWS 140720Z 07007KT 25/18 A3013 RMK A01 T02490179  RH  068%=      5-min Rain = 0
KBWS 140725Z 07007KT 25/18 A3013 RMK A01 T02480177  RH  068%=      5-min Rain = 0
KBWS 140730Z 07008KT 25/18 A3013 RMK A01 T02500176  RH  067%=      5-min Rain = 0
KBWS 140735Z 07008KT 25/18 A3013 RMK A01 T02500177  RH  067%=      5-min Rain = 0
KBWS 140740Z 07008KT 25/18 A3013 RMK A01 T02500178  RH  068%=      5-min Rain = 0
KBWS 140745Z 07008KT 25/18 A3013 RMK A01 T02500178  RH  068%=      5-min Rain = 0
KBWS 140750Z 07008KT 25/18 A3014 RMK A01 T02490178  RH  068%=      5-min Rain = 0
KBWS 140755Z 06008KT 25/18 A3013 RMK A01 T02480177  RH  068%=      5-min Rain = 0
KBWS 140800Z 06009KT 25/18 A3013 RMK A01 T02480178  RH  069%=      5-min Rain = 0
KBWS 140805Z 06010KT 25/18 A3013 RMK A01 T02470177  RH  069%=      5-min Rain = 0
KBWS 140810Z 07009KT 25/18 A3014 RMK A01 T02470177  RH  069%=      5-min Rain = 0
KBWS 140815Z 06010KT 25/18 A3014 RMK A01 T02460178  RH  069%=      5-min Rain = 0
KBWS 140820Z 06009KT 25/18 A3014 RMK A01 T02460178  RH  069%=      5-min Rain = 0
KBWS 140825Z 07009G14KT 25/18 A3013 RMK A01 T02450178  RH  070%=      5-min Rain = 0
KBWS 140830Z 07010G15KT 25/18 A3013 RMK A01 T02450178  RH  070%=      5-min Rain = 0
KBWS 140835Z 07009KT 24/18 A3013 RMK A01 T02440177  RH  070%=      5-min Rain = 0
KBWS 140840Z 07009KT 24/18 A3013 RMK A01 T02430178  RH  070%=      5-min Rain = 0
KBWS 140845Z 06010KT 24/18 A3013 RMK A01 T02440179  RH  071%=      5-min Rain = 0
KBWS 140850Z 06010KT 24/18 A3014 RMK A01 T02440180  RH  071%=      5-min Rain = 0
KBWS 140855Z 06011KT 24/18 A3014 RMK A01 T02440180  RH  071%=      5-min Rain = 0
KBWS 140900Z 06011KT 25/18 A3014 RMK A01 T02450180  RH  071%=      5-min Rain = 0
KBWS 140905Z 07009KT 25/18 A3013 RMK A01 T02450181  RH  071%=      5-min Rain = 0
KBWS 140910Z 06011KT 25/18 A3013 RMK A01 T02450180  RH  071%=      5-min Rain = 0
KBWS 140915Z 06012KT 24/18 A3013 RMK A01 T02440179  RH  071%=      5-min Rain = 0
KBWS 140920Z 06011KT 24/18 A3013 RMK A01 T02440180  RH  071%=      5-min Rain = 0
KBWS 140925Z 06010KT 24/18 A3013 RMK A01 T02430180  RH  072%=      5-min Rain = 0
KBWS 140930Z 06010KT 24/18 A3013 RMK A01 T02420180  RH  072%=      5-min Rain = 0
KBWS 140935Z 06010KT 24/18 A3013 RMK A01 T02420179  RH  072%=      5-min Rain = 0
KBWS 140940Z 06009KT 24/18 A3013 RMK A01 T02400179  RH  072%=      5-min Rain = 0
KBWS 140945Z 06009KT 24/18 A3013 RMK A01 T02400179  RH  072%=      5-min Rain = 0
KBWS 140950Z 07009KT 24/18 A3013 RMK A01 T02390179  RH  072%=      5-min Rain = 0
KBWS 140955Z 07007KT 24/18 A3013 RMK A01 T02380179  RH  073%=      5-min Rain = 0
KBWS 141000Z 07007KT 24/18 A3013 RMK A01 T02380178  RH  073%=      5-min Rain = 0
KBWS 141005Z 07007KT 24/18 A3013 RMK A01 T02360179  RH  074%=      5-min Rain = 0
KBWS 141010Z 06008KT 24/18 A3014 RMK A01 T02360178  RH  074%=      5-min Rain = 0
KBWS 141015Z 06008KT 24/18 A3014 RMK A01 T02360178  RH  074%=      5-min Rain = 0
KBWS 141020Z 06008KT 24/18 A3014 RMK A01 T02360179  RH  074%=      5-min Rain = 0
KBWS 141025Z 06009KT 24/18 A3014 RMK A01 T02350178  RH  074%=      5-min Rain = 0
KBWS 141030Z 06009KT 24/18 A3014 RMK A01 T02350178  RH  074%=      5-min Rain = 0
KBWS 141035Z 05009KT 24/18 A3014 RMK A01 T02350177  RH  074%=      5-min Rain = 0
KBWS 141040Z 05009KT 23/18 A3014 RMK A01 T02330176  RH  074%=      5-min Rain = 0
KBWS 141045Z 04010KT 23/18 A3014 RMK A01 T02330176  RH  074%=      5-min Rain = 0
KBWS 141050Z 04010KT 23/18 A3014 RMK A01 T02320176  RH  074%=      5-min Rain = 0
KBWS 141055Z 04011KT 23/18 A3014 RMK A01 T02320175  RH  074%=      5-min Rain = 0
KBWS 141100Z 04010KT 23/18 A3014 RMK A01 T02320175  RH  074%=      5-min Rain = 0
KBWS 141105Z 04010KT 23/18 A3014 RMK A01 T02310175  RH  074%=      5-min Rain = 0
KBWS 141110Z 04011KT 23/18 A3014 RMK A01 T02310175  RH  074%=      5-min Rain = 0
KBWS 141115Z 04011KT 23/18 A3015 RMK A01 T02310175  RH  074%=      5-min Rain = 0
KBWS 141120Z 04011KT 23/18 A3015 RMK A01 T02310175  RH  074%=      5-min Rain = 0
KBWS 141125Z 05012KT 23/17 A3015 RMK A01 T02310174  RH  074%=      5-min Rain = 0
KBWS 141130Z 04013KT 23/17 A3015 RMK A01 T02320174  RH  074%=      5-min Rain = 0
KBWS 141135Z 05015KT 23/17 A3015 RMK A01 T02320174  RH  073%=      5-min Rain = 0
KBWS 141140Z 05015G20KT 23/17 A3016 RMK A01 T02330174  RH  073%=      5-min Rain = 0
KBWS 141145Z 05016G21KT 23/17 A3016 RMK A01 T02320174  RH  073%=      5-min Rain = 0
KBWS 141150Z 05015G20KT 23/17 A3016 RMK A01 T02310173  RH  073%=      5-min Rain = 0
KBWS 141155Z 04017G22KT 23/17 A3016 RMK A01 T02300172  RH  073%=      5-min Rain = 0
KBWS 141200Z 05017G22KT 23/17 A3017 RMK A01 T02290171  RH  073%=      5-min Rain = 0
KBWS 141205Z 05017G22KT 23/17 A3017 RMK A01 T02280171  RH  074%=      5-min Rain = 0
KBWS 141210Z 05015G21KT 23/17 A3017 RMK A01 T02270170  RH  074%=      5-min Rain = 0
KBWS 141215Z 05014G21KT 23/17 A3017 RMK A01 T02250170  RH  075%=      5-min Rain = 0
KBWS 141220Z 05016KT 23/17 A3017 RMK A01 T02250170  RH  075%=      5-min Rain = 0
KBWS 141225Z 05016KT 22/17 A3018 RMK A01 T02230169  RH  075%=      5-min Rain = 0
KBWS 141230Z 05014G19KT 22/17 A3018 RMK A01 T02220170  RH  076%=      5-min Rain = 0
KBWS 141235Z 04015KT 22/17 A3018 RMK A01 T02210169  RH  076%=      5-min Rain = 0
KBWS 141240Z 05016KT 22/17 A3018 RMK A01 T02200170  RH  077%=      5-min Rain = 0
KBWS 141245Z 05016G21KT 22/17 A3019 RMK A01 T02200171  RH  077%=      5-min Rain = 0
KBWS 141250Z 04017KT 22/17 A3019 RMK A01 T02200170  RH  077%=      5-min Rain = 0
KBWS 141255Z 04015G21KT 22/17 A3019 RMK A01 T02200168  RH  076%=      5-min Rain = 0
KBWS 141300Z 04015G20KT 22/17 A3019 RMK A01 T02190167  RH  076%=      5-min Rain = 0
KBWS 141305Z 04017G22KT 22/17 A302 RMK A01 T02190165  RH  075%=      5-min Rain = 0
KBWS 141310Z 04019G24KT 22/16 A302 RMK A01 T02170160  RH  073%=      5-min Rain = 0
KBWS 141315Z 04017G23KT 22/16 A3021 RMK A01 T02160157  RH  073%=      5-min Rain = 0
KBWS 141320Z 04016G23KT 22/16 A3022 RMK A01 T02160156  RH  072%=      5-min Rain = 0
KBWS 141325Z 04017G22KT 22/16 A3022 RMK A01 T02160156  RH  072%=      5-min Rain = 0
KBWS 141330Z 04017G23KT 22/15 A3022 RMK A01 T02150153  RH  071%=      5-min Rain = 0
KBWS 141335Z 04015G20KT 22/15 A3023 RMK A01 T02150152  RH  070%=      5-min Rain = 0
KBWS 141340Z 04017G23KT 22/15 A3023 RMK A01 T02150151  RH  070%=      5-min Rain = 0
KBWS 141345Z 04015KT 22/15 A3023 RMK A01 T02170151  RH  069%=      5-min Rain = 0
KBWS 141350Z 04016G22KT 22/15 A3024 RMK A01 T02180151  RH  068%=      5-min Rain = 0
KBWS 141355Z 04017G22KT 22/15 A3024 RMK A01 T02200150  RH  068%=      5-min Rain = 0
KBWS 141400Z 05017G22KT 22/15 A3024 RMK A01 T02220151  RH  067%=      5-min Rain = 0
KBWS 141405Z 04015G20KT 22/15 A3025 RMK A01 T02240151  RH  066%=      5-min Rain = 0
KBWS 141410Z 03015G20KT 23/15 A3025 RMK A01 T02280152  RH  065%=      5-min Rain = 0
KBWS 141415Z 04018G24KT 23/15 A3025 RMK A01 T02270151  RH  065%=      5-min Rain = 0
KBWS 141420Z 05018KT 23/15 A3025 RMK A01 T02290152  RH  064%=      5-min Rain = 0
KBWS 141425Z 04018G24KT 23/15 A3025 RMK A01 T02310151  RH  064%=      5-min Rain = 0
KBWS 141430Z 04015G21KT 24/15 A3025 RMK A01 T02370153  RH  062%=      5-min Rain = 0
KBWS 141435Z 05014G19KT 24/15 A3025 RMK A01 T02400154  RH  061%=      5-min Rain = 0
KBWS 141440Z 05016G21KT 24/15 A3025 RMK A01 T02420154  RH  061%=      5-min Rain = 0
KBWS 141445Z 05015KT 24/16 A3025 RMK A01 T02430155  RH  061%=      5-min Rain = 0
KBWS 141450Z 06017KT 24/16 A3025 RMK A01 T02420155  RH  061%=      5-min Rain = 0
KBWS 141455Z 05015KT 24/15 A3025 RMK A01 T02420154  RH  061%=      5-min Rain = 0
KBWS 141500Z 05013KT 25/16 A3025 RMK A01 T02450155  RH  060%=      5-min Rain = 0
KBWS 141505Z 04013KT 25/16 A3025 RMK A01 T02520156  RH  058%=      5-min Rain = 0
KBWS 141510Z 05014KT 25/16 A3025 RMK A01 T02540157  RH  057%=      5-min Rain = 0
KBWS 141515Z 03012KT 26/16 A3025 RMK A01 T02560155  RH  056%=      5-min Rain = 0
KBWS 141520Z 03013KT 26/15 A3025 RMK A01 T02550154  RH  056%=      5-min Rain = 0
KBWS 141525Z 05013KT 26/16 A3025 RMK A01 T02550155  RH  057%=      5-min Rain = 0
KBWS 141530Z 04013KT 26/16 A3025 RMK A01 T02550156  RH  057%=      5-min Rain = 0
KBWS 141535Z 03015KT 26/16 A3025 RMK A01 T02570155  RH  056%=      5-min Rain = 0
KBWS 141540Z 04013G18KT 26/16 A3025 RMK A01 T02580156  RH  056%=      5-min Rain = 0
KBWS 141545Z 04012KT 26/16 A3025 RMK A01 T02630157  RH  055%=      5-min Rain = 0
KBWS 141550Z 03012KT 27/16 A3025 RMK A01 T02700158  RH  053%=      5-min Rain = 0
KBWS 141555Z 05013KT 27/16 A3024 RMK A01 T02720159  RH  052%=      5-min Rain = 0
KBWS 141600Z 04015KT 27/16 A3024 RMK A01 T02730157  RH  051%=      5-min Rain = 0
KBWS 141605Z 04015KT 27/16 A3024 RMK A01 T02730157  RH  051%=      5-min Rain = 0
KBWS 141610Z 03012G17KT 28/16 A3024 RMK A01 T02780158  RH  050%=      5-min Rain = 0
KBWS 141615Z 04011G16KT 28/16 A3024 RMK A01 T02790157  RH  050%=      5-min Rain = 0
KBWS 141620Z 02013G18KT 28/16 A3024 RMK A01 T02790155  RH  049%=      5-min Rain = 0
KBWS 141625Z 03012G17KT 28/15 A3024 RMK A01 T02820154  RH  048%=      5-min Rain = 0
KBWS 141630Z 02010G15KT 29/16 A3024 RMK A01 T02850155  RH  048%=      5-min Rain = 0
KBWS 141635Z 03011G17KT 29/15 A3024 RMK A01 T02850154  RH  047%=      5-min Rain = 0
KBWS 141640Z 03012G17KT 29/15 A3023 RMK A01 T02860153  RH  046%=      5-min Rain = 0
KBWS 141645Z 03011G16KT 29/15 A3023 RMK A01 T02870152  RH  046%=      5-min Rain = 0
KBWS 141650Z 04011G16KT 29/15 A3023 RMK A01 T02910152  RH  045%=      5-min Rain = 0
KBWS 141655Z 05014G20KT 29/14 A3022 RMK A01 T02920141  RH  041%=      5-min Rain = 0
KBWS 141700Z 05014KT 29/14 A3021 RMK A01 T02910140  RH  042%=      5-min Rain = 0
KBWS 141705Z 05013KT 29/14 A3021 RMK A01 T02920142  RH  042%=      5-min Rain = 0
KBWS 141710Z 06013G19KT 30/14 A3021 RMK A01 T02950139  RH  040%=      5-min Rain = 0
KBWS 141715Z 07013KT 30/14 A3021 RMK A01 T03020138  RH  038%=      5-min Rain = 0
KBWS 141720Z 07013G19KT 30/13 A3021 RMK A01 T02990134  RH  038%=      5-min Rain = 0
KBWS 141725Z 08016G23KT 31/13 A302 RMK A01 T03050131  RH  036%=      5-min Rain = 0
KBWS 141730Z 07014G19KT 30/14 A302 RMK A01 T03000138  RH  039%=      5-min Rain = 0
KBWS 141735Z 08015KT 31/13 A3019 RMK A01 T03060132  RH  036%=      5-min Rain = 0
KBWS 141740Z 08016G21KT 31/13 A3019 RMK A01 T03090128  RH  034%=      5-min Rain = 0
KBWS 141745Z 09016KT 31/13 A3019 RMK A01 T03080132  RH  035%=      5-min Rain = 0
KBWS 141750Z 09015G21KT 31/14 A3018 RMK A01 T03090135  RH  036%=      5-min Rain = 0
KBWS 141755Z 09017G23KT 32/13 A3018 RMK A01 T03150131  RH  034%=      5-min Rain = 0
KBWS 141800Z 08015G21KT 31/14 A3018 RMK A01 T03140135  RH  035%=      5-min Rain = 0
KBWS 141805Z 08015G21KT 32/13 A3018 RMK A01 T03160129  RH  033%=      5-min Rain = 0
KBWS 141810Z 10016KT 32/13 A3018 RMK A01 T03210126  RH  032%=      5-min Rain = 0
KBWS 141815Z 09015G20KT 32/13 A3018 RMK A01 T03190126  RH  032%=      5-min Rain = 0
KBWS 141820Z 08013G18KT 32/13 A3018 RMK A01 T03210130  RH  032%=      5-min Rain = 0
KBWS 141825Z 10013G18KT 32/13 A3018 RMK A01 T03220134  RH  033%=      5-min Rain = 0
KBWS 141830Z 09014G19KT 33/13 A3018 RMK A01 T03260127  RH  031%=      5-min Rain = 0
KBWS 141835Z 08013KT 32/13 A3018 RMK A01 T03240131  RH  032%=      5-min Rain = 0
KBWS 141840Z 08013G20KT 33/13 A3018 RMK A01 T03280132  RH  032%=      5-min Rain = 0
KBWS 141845Z 09014G19KT 32/12 A3018 RMK A01 T03230124  RH  031%=      5-min Rain = 0
KBWS 141850Z 08013KT 32/13 A3018 RMK A01 T03230127  RH  032%=      5-min Rain = 0
KBWS 141855Z 10012G17KT 33/13 A3018 RMK A01 T03260128  RH  031%=      5-min Rain = 0
KBWS 141900Z 09013KT 32/13 A3018 RMK A01 T03240130  RH  032%=      5-min Rain = 0
KBWS 141905Z 08012G18KT 32/13 A3017 RMK A01 T03230132  RH  033%=      5-min Rain = 0
KBWS 141910Z 09013G21KT 33/13 A3017 RMK A01 T03290130  RH  031%=      5-min Rain = 0
KBWS 141915Z 08011G16KT 33/13 A3017 RMK A01 T03280128  RH  031%=      5-min Rain = 0
KBWS 141920Z 08009G15KT 33/13 A3017 RMK A01 T03270130  RH  031%=      5-min Rain = 0
KBWS 141925Z 08012G19KT 33/13 A3017 RMK A01 T03330132  RH  031%=      5-min Rain = 0
KBWS 141930Z 08011KT 33/13 A3017 RMK A01 T03330130  RH  030%=      5-min Rain = 0
KBWS 141935Z 08012KT 33/13 A3017 RMK A01 T03320129  RH  030%=      5-min Rain = 0
KBWS 141940Z 07012G17KT 33/13 A3017 RMK A01 T03330130  RH  030%=      5-min Rain = 0
KBWS 141945Z 09010G16KT 34/12 A3017 RMK A01 T03350121  RH  028%=      5-min Rain = 0
KBWS 141950Z 08010G16KT 34/12 A3016 RMK A01 T03370118  RH  027%=      5-min Rain = 0
KBWS 141955Z 08011G18KT 34/12 A3016 RMK A01 T03360115  RH  027%=      5-min Rain = 0
KBWS 142000Z 08011G18KT 34/11 A3016 RMK A01 T03370111  RH  026%=      5-min Rain = 0
KBWS 142005Z 07010G17KT 35/10 A3015 RMK A01 T03450104  RH  024%=      5-min Rain = 0
KBWS 142010Z 04015G20KT 35/10 A3015 RMK A01 T03460103  RH  024%=      5-min Rain = 0
KBWS 142015Z 04015KT 34/10 A3015 RMK A01 T03430100  RH  023%=      5-min Rain = 0
KBWS 142020Z 04014G19KT 34/10 A3014 RMK A01 T03430097  RH  023%=      5-min Rain = 0
KBWS 142025Z 06011KT 34/09 A3014 RMK A01 T03420094  RH  023%=      5-min Rain = 0
KBWS 142030Z 07013G18KT 34/11 A3014 RMK A01 T03430105  RH  024%=      5-min Rain = 0
KBWS 142035Z 06014KT 34/11 A3014 RMK A01 T03440105  RH  024%=      5-min Rain = 0
KBWS 142040Z 07010G17KT 34/10 A3014 RMK A01 T03420102  RH  024%=      5-min Rain = 0
KBWS 142045Z 05013G20KT 34/11 A3013 RMK A01 T03420105  RH  024%=      5-min Rain = 0
KBWS 142050Z 09009KT 34/10 A3013 RMK A01 T03430100  RH  024%=      5-min Rain = 0
KBWS 142055Z 06009G17KT 35/10 A3012 RMK A01 T03450103  RH  024%=      5-min Rain = 0
KBWS 142100Z 07011KT 34/10 A3012 RMK A01 T03430100  RH  023%=      5-min Rain = 0
KBWS 142105Z 06011G18KT 35/10 A3012 RMK A01 T03450101  RH  023%=      5-min Rain = 0
KBWS 142110Z 07011KT 34/10 A3012 RMK A01 T03430098  RH  023%=      5-min Rain = 0
KBWS 142115Z 06006G14KT 35/10 A3012 RMK A01 T03460099  RH  023%=      5-min Rain = 0
KBWS 142120Z 09006G11KT 34/10 A3011 RMK A01 T03440098  RH  023%=      5-min Rain = 0
KBWS 142125Z 05012G17KT 35/10 A3011 RMK A01 T03470100  RH  023%=      5-min Rain = 0
KBWS 142130Z 04010G18KT 35/10 A3011 RMK A01 T03450096  RH  023%=      5-min Rain = 0
KBWS 142135Z 05007G14KT 35/09 A3011 RMK A01 T03480091  RH  021%=      5-min Rain = 0
KBWS 142140Z 07009KT 35/09 A3011 RMK A01 T03470094  RH  022%=      5-min Rain = 0
KBWS 142145Z 07010G15KT 35/09 A3011 RMK A01 T03530091  RH  021%=      5-min Rain = 0
KBWS 142150Z 06010G15KT 35/09 A301 RMK A01 T03480087  RH  021%=      5-min Rain = 0
KBWS 142155Z 07009G15KT 35/09 A301 RMK A01 T03470090  RH  021%=      5-min Rain = 0
KBWS 142200Z 07009KT 35/08 A301 RMK A01 T03510083  RH  020%=      5-min Rain = 0
KBWS 142205Z 04008KT 35/08 A301 RMK A01 T03510079  RH  019%=      5-min Rain = 0
KBWS 142210Z 07008G13KT 35/08 A301 RMK A01 T03490076  RH  019%=      5-min Rain = 0
KBWS 142215Z 05010KT 35/08 A301 RMK A01 T03480080  RH  020%=      5-min Rain = 0
KBWS 142220Z 04007G13KT 35/07 A301 RMK A01 T03500074  RH  019%=      5-min Rain = 0
KBWS 142225Z 07008G13KT 35/08 A3009 RMK A01 T03500080  RH  020%=      5-min Rain = 0
KBWS 142230Z 07006G11KT 35/07 A3009 RMK A01 T03490073  RH  019%=      5-min Rain = 0
KBWS 142235Z 03009KT 35/08 A3009 RMK A01 T03490077  RH  019%=      5-min Rain = 0
KBWS 142240Z 04009KT 35/09 A3009 RMK A01 T03480085  RH  021%=      5-min Rain = 0
KBWS 142245Z 05005KT 35/09 A3009 RMK A01 T03470089  RH  021%=      5-min Rain = 0
KBWS 142250Z 05005KT 35/09 A3009 RMK A01 T03460089  RH  021%=      5-min Rain = 0
KBWS 142255Z 07007G12KT 35/09 A3009 RMK A01 T03480085  RH  021%=      5-min Rain = 0
KBWS 142300Z 06009G14KT 35/09 A3009 RMK A01 T03470088  RH  021%=      5-min Rain = 0
KBWS 142305Z 07009KT 35/09 A3009 RMK A01 T03480092  RH  022%=      5-min Rain = 0
KBWS 142310Z 08010KT 35/09 A3009 RMK A01 T03490088  RH  021%=      5-min Rain = 0
KBWS 142315Z 04009KT 35/09 A3009 RMK A01 T03470085  RH  021%=      5-min Rain = 0
KBWS 142320Z 07006G11KT 35/09 A3008 RMK A01 T03470087  RH  021%=      5-min Rain = 0
KBWS 142325Z 09009KT 35/09 A3008 RMK A01 T03500092  RH  021%=      5-min Rain = 0
KBWS 142330Z 07010KT 35/10 A3008 RMK A01 T03480097  RH  022%=      5-min Rain = 0
KBWS 142335Z 08008KT 35/10 A3008 RMK A01 T03460096  RH  022%=      5-min Rain = 0
KBWS 142340Z 08008G13KT 35/10 A3008 RMK A01 T03460096  RH  022%=      5-min Rain = 0
KBWS 142345Z 07010G16KT 35/10 A3008 RMK A01 T03470099  RH  023%=      5-min Rain = 0
KBWS 142350Z 08009KT 35/10 A3008 RMK A01 T03460104  RH  024%=      5-min Rain = 0
KBWS 142355Z 10011KT 35/11 A3008 RMK A01 T03460107  RH  024%=      5-min Rain = 0
KBWS 150000Z 11009KT 34/11 A3008 RMK A01 T03440107  RH  024%=      5-min Rain = 0
KBWS 150005Z 08013KT 35/11 A3008 RMK A01 T03450110  RH  025%=      5-min Rain = 0
KBWS 150010Z 08014KT 34/11 A3008 RMK A01 T03410109  RH  025%=      5-min Rain = 0
KBWS 150015Z 08011KT 34/11 A3008 RMK A01 T03400110  RH  026%=      5-min Rain = 0
KBWS 150020Z 08008G13KT 34/11 A3008 RMK A01 T03400110  RH  026%=      5-min Rain = 0
KBWS 150025Z 10010KT 34/11 A3008 RMK A01 T03400106  RH  025%=      5-min Rain = 0
KBWS 150030Z 10010KT 34/11 A3009 RMK A01 T03400107  RH  025%=      5-min Rain = 0
KBWS 150035Z 09010KT 34/11 A3009 RMK A01 T03390107  RH  025%=      5-min Rain = 0
KBWS 150040Z 10010KT 34/11 A3009 RMK A01 T03380106  RH  025%=      5-min Rain = 0
KBWS 150045Z 10009KT 34/11 A3009 RMK A01 T03350106  RH  026%=      5-min Rain = 0
KBWS 150050Z 10008KT 33/11 A3009 RMK A01 T03340106  RH  026%=      5-min Rain = 0
KBWS 150055Z 08009KT 33/11 A3009 RMK A01 T03320110  RH  027%=      5-min Rain = 0
KBWS 150100Z 08009KT 33/11 A3009 RMK A01 T03290110  RH  027%=      5-min Rain = 0
KBWS 150105Z 08008KT 33/11 A3009 RMK A01 T03280109  RH  027%=      5-min Rain = 0
KBWS 150110Z 09008KT 33/11 A301 RMK A01 T03260110  RH  028%=      5-min Rain = 0
KBWS 150115Z 09007KT 32/11 A301 RMK A01 T03240111  RH  028%=      5-min Rain = 0
KBWS 150120Z 09007KT 32/11 A301 RMK A01 T03220110  RH  028%=      5-min Rain = 0
KBWS 150125Z 09005KT 32/11 A301 RMK A01 T03180112  RH  029%=      5-min Rain = 0
KBWS 150130Z 08005KT 31/12 A301 RMK A01 T03140115  RH  031%=      5-min Rain = 0
KBWS 150135Z 08006KT 31/12 A3011 RMK A01 T03100117  RH  032%=      5-min Rain = 0
KBWS 150140Z 09006KT 31/12 A3011 RMK A01 T03090118  RH  032%=      5-min Rain = 0
KBWS 150145Z 10005KT 31/12 A3011 RMK A01 T03070117  RH  032%=      5-min Rain = 0
KBWS 150150Z 10006KT 31/12 A3011 RMK A01 T03050116  RH  032%=      5-min Rain = 0
KBWS 150155Z 10006KT 30/12 A3011 RMK A01 T03020117  RH  033%=      5-min Rain = 0
KBWS 150200Z 10005KT 30/12 A3012 RMK A01 T03000118  RH  034%=      5-min Rain = 0
KBWS 150205Z 09005KT 30/12 A3012 RMK A01 T02980119  RH  034%=      5-min Rain = 0
KBWS 150210Z 09005KT 30/12 A3013 RMK A01 T02960119  RH  035%=      5-min Rain = 0
KBWS 150215Z 09004KT 30/12 A3013 RMK A01 T02950119  RH  035%=      5-min Rain = 0
KBWS 150220Z 09004KT 29/12 A3013 RMK A01 T02920121  RH  036%=      5-min Rain = 0
KBWS 150225Z 10005KT 29/12 A3013 RMK A01 T02890121  RH  037%=      5-min Rain = 0
KBWS 150230Z 10005KT 29/12 A3013 RMK A01 T02870120  RH  037%=      5-min Rain = 0
KBWS 150235Z 10004KT 29/12 A3013 RMK A01 T02850122  RH  038%=      5-min Rain = 0
KBWS 150240Z 10004KT 28/12 A3014 RMK A01 T02830123  RH  039%=      5-min Rain = 0
KBWS 150245Z 10005KT 28/12 A3014 RMK A01 T02820123  RH  039%=      5-min Rain = 0
KBWS 150250Z 10005KT 28/12 A3014 RMK A01 T02840124  RH  039%=      5-min Rain = 0
KBWS 150255Z 10005KT 28/12 A3014 RMK A01 T02830124  RH  039%=      5-min Rain = 0
KBWS 150300Z 10006KT 28/13 A3014 RMK A01 T02810125  RH  040%=      5-min Rain = 0
KBWS 150305Z 10006KT 28/13 A3014 RMK A01 T02800126  RH  040%=      5-min Rain = 0
KBWS 150310Z 10006KT 28/13 A3014 RMK A01 T02800126  RH  040%=      5-min Rain = 0
KBWS 150315Z 11007KT 28/13 A3014 RMK A01 T02800127  RH  040%=      5-min Rain = 0
KBWS 150320Z 11007KT 28/13 A3014 RMK A01 T02810129  RH  041%=      5-min Rain = 0
KBWS 150325Z 11006KT 28/13 A3015 RMK A01 T02800129  RH  041%=      5-min Rain = 0
KBWS 150330Z 11007KT 28/13 A3015 RMK A01 T02780130  RH  042%=      5-min Rain = 0
KBWS 150335Z 11007KT 28/13 A3015 RMK A01 T02780132  RH  042%=      5-min Rain = 0
KBWS 150340Z 11007KT 28/13 A3015 RMK A01 T02770133  RH  043%=      5-min Rain = 0
KBWS 150345Z 11007KT 28/13 A3015 RMK A01 T02760134  RH  043%=      5-min Rain = 0
KBWS 150350Z 11006KT 28/14 A3016 RMK A01 T02750135  RH  044%=      5-min Rain = 0
KBWS 150355Z 12007KT 27/14 A3016 RMK A01 T02740137  RH  045%=      5-min Rain = 0
KBWS 150400Z 12007KT 27/14 A3016 RMK A01 T02730139  RH  046%=      5-min Rain = 0
KBWS 150405Z 12007KT 27/14 A3016 RMK A01 T02730141  RH  046%=      5-min Rain = 0
KBWS 150410Z 12007KT 27/14 A3016 RMK A01 T02720142  RH  047%=      5-min Rain = 0
KBWS 150415Z 12007KT 27/14 A3016 RMK A01 T02710143  RH  047%=      5-min Rain = 0
KBWS 150420Z 12006KT 27/14 A3016 RMK A01 T02690144  RH  048%=      5-min Rain = 0
KBWS 150425Z 12006KT 27/14 A3016 RMK A01 T02680144  RH  049%=      5-min Rain = 0
KBWS 150430Z 11006KT 27/15 A3016 RMK A01 T02660145  RH  049%=      5-min Rain = 0
KBWS 150435Z 11005KT 27/15 A3016 RMK A01 T02650146  RH  050%=      5-min Rain = 0
KBWS 150440Z 11005KT 26/15 A3016 RMK A01 T02630146  RH  051%=      5-min Rain = 0
KBWS 150445Z 12005KT 26/15 A3016 RMK A01 T02610146  RH  051%=      5-min Rain = 0
KBWS 150450Z 12005KT 26/15 A3016 RMK A01 T02600147  RH  052%=      5-min Rain = 0
KBWS 150455Z 13005KT 26/15 A3016 RMK A01 T02580147  RH  052%=      5-min Rain = 0

Page generated in 0.0094 seconds.